Time;durP1;ratioP1;P1;durP2;ratioP2;P2;SDS_P1;SDS_P2;PMS_P1;PMS_P2;Temp;Humidity;BMP_temperature;BMP_pressure;BME280_temperature;BME280_humidity;BME280_pressure;Samples;Min_cycle;Max_cycle;Signal;HPM_P1;HPM_P2
2023/03/30 00:00:56;;;;;;;;;;;;;;;;;;5134087;27;1804;-42
2023/03/30 00:03:25;;;;;;;;;;;;;;;;;;5134128;27;2065;-41
2023/03/30 00:05:56;;;;;;;;;;;;;;;;;;5132738;27;2039;-41
2023/03/30 00:08:27;;;;;;;;;;;;;;;;;;5134232;27;2181;-41
2023/03/30 00:11:10;;;;;;;;;;;;;;;;;;5133874;27;2257;-40
2023/03/30 00:13:38;;;;;;;;;;;;;;;;;;5134110;27;2066;-41
2023/03/30 00:16:06;;;;;;;;;;;;;;;;;;5133749;27;2143;-41
2023/03/30 00:18:33;;;;;;;;;;;;;;;;;;5134204;27;1953;-40
2023/03/30 00:21:03;;;;;;;;;;;;;;;;;;5133927;27;1976;-40
2023/03/30 00:23:31;;;;;;;;;;;;;;;;;;5134015;27;1847;-41
2023/03/30 00:25:59;;;;;;;;;;;;;;;;;;5133453;27;1966;-41
2023/03/30 00:28:29;;;;;;;;;;;;;;;;;;5133557;27;2050;-40
2023/03/30 00:30:57;;;;;;;;;;;;;;;;;;5133603;27;1849;-40
2023/03/30 00:33:24;;;;;;;;;;;;;;;;;;5133658;27;2031;-41
2023/03/30 00:36:07;;;;;;;;;;;;;;;;;;5133551;27;2005;-41
2023/03/30 00:38:34;;;;;;;;;;;;;;;;;;5133354;27;1865;-42
2023/03/30 00:41:02;;;;;;;;;;;;;;;;;;5133507;27;1948;-41
2023/03/30 00:43:32;;;;;;;;;;;;;;;;;;5133450;27;1788;-41
2023/03/30 00:45:59;;;;;;;;;;;;;;;;;;5133139;27;1910;-40
2023/03/30 00:48:35;;;;;;;;;;;;;;;;;;5115017;27;1981;-41
2023/03/30 00:51:02;;;;;;;;;;;;;;;;;;5133292;27;1994;-42
2023/03/30 00:53:43;;;;;;;;;;;;;;;;;;5133679;27;1905;-40
2023/03/30 00:56:12;;;;;;;;;;;;;;;;;;5119584;27;2078;-40
2023/03/30 00:58:40;;;;;;;;;;;;;;;;;;5133230;27;2042;-40
2023/03/30 01:01:09;;;;;;;;;;;;;;;;;;5133187;27;2035;-40
2023/03/30 01:03:38;;;;;;;;;;;;;;;;;;5133044;27;1869;-41
2023/03/30 01:06:06;;;;;;;;;;;;;;;;;;5132932;27;1968;-41
2023/03/30 01:08:34;;;;;;;;;;;;;;;;;;5114451;27;1972;-41
2023/03/30 01:11:03;;;;;;;;;;;;;;;;;;5133011;27;1925;-41
2023/03/30 01:13:35;;;;;;;;;;;;;;;;;;5132499;27;2090;-40
2023/03/30 01:16:08;;;;;;;;;;;;;;;;;;5131544;27;1958;-41
2023/03/30 01:18:43;;;;;;;;;;;;;;;;;;5133029;27;1871;-41
2023/03/30 01:21:44;;;;;;;;;;;;;;;;;;5132661;27;2342;-43
2023/03/30 01:24:41;;;;;;;;;;;;;;;;;;5109269;27;1946;-41
2023/03/30 01:27:14;;;;;;;;;;;;;;;;;;5114352;27;2062;-42
2023/03/30 01:30:00;;;;;;;;;;;;;;;;;;5132670;27;2048;-41
2023/03/30 01:32:27;;;;;;;;;;;;;;;;;;5132462;27;1943;-41
2023/03/30 01:34:56;;;;;;;;;;;;;;;;;;5132369;27;1948;-46
2023/03/30 01:37:24;;;;;;;;;;;;;;;;;;5132291;27;1901;-41
2023/03/30 01:39:51;;;;;;;;;;;;;;;;;;5132585;27;1707;-41
2023/03/30 01:42:47;;;;;;;;;;;;;;;;;;5132229;27;2060;-41
2023/03/30 01:45:30;;;;;;;;;;;;;;;;;;5123197;27;1978;-41
2023/03/30 01:48:07;;;;;;;;;;;;;;;;;;5113973;27;1694;-40
2023/03/30 01:50:37;;;;;;;;;;;;;;;;;;5132206;27;2069;-41
2023/03/30 01:53:10;;;;;;;;;;;;;;;;;;5113546;27;1960;-41
2023/03/30 01:55:47;;;;;;;;;;;;;;;;;;5113626;28;2235;-40
2023/03/30 01:58:24;;;;;;;;;;;;;;;;;;5132102;27;2100;-40
2023/03/30 02:00:53;;;;;;;;;;;;;;;;;;5131798;27;2050;-41
2023/03/30 02:03:23;;;;;;;;;;;;;;;;;;5123571;27;2174;-40
2023/03/30 02:05:53;;;;;;;;;;;;;;;;;;5131882;27;2174;-41
2023/03/30 02:08:22;;;;;;;;;;;;;;;;;;5131957;28;1984;-41
2023/03/30 02:10:51;;;;;;;;;;;;;;;;;;5131803;28;1976;-41
2023/03/30 02:13:19;;;;;;;;;;;;;;;;;;5131893;28;1954;-41
2023/03/30 02:15:54;;;;;;;;;;;;;;;;;;5132260;28;1947;-43
2023/03/30 02:18:21;;;;;;;;;;;;;;;;;;5113339;28;2143;-41
2023/03/30 02:20:49;;;;;;;;;;;;;;;;;;5131789;28;1859;-40
2023/03/30 02:23:18;;;;;;;;;;;;;;;;;;5131852;28;2392;-41
2023/03/30 02:25:45;;;;;;;;;;;;;;;;;;5113449;28;1836;-41
2023/03/30 02:28:17;;;;;;;;;;;;;;;;;;5134232;27;1970;-41
2023/03/30 02:30:45;;;;;;;;;;;;;;;;;;5136014;27;1943;-40
2023/03/30 02:33:18;;;;;;;;;;;;;;;;;;5136071;27;1890;-41
2023/03/30 02:35:52;;;;;;;;;;;;;;;;;;5135936;27;1940;-41
2023/03/30 02:38:35;;;;;;;;;;;;;;;;;;5135732;27;1552;-40
2023/03/30 02:41:19;;;;;;;;;;;;;;;;;;5135757;27;1906;-40
2023/03/30 02:43:54;;;;;;;;;;;;;;;;;;5117184;27;1929;-40
2023/03/30 02:46:21;;;;;;;;;;;;;;;;;;5116818;27;1878;-41
2023/03/30 02:48:56;;;;;;;;;;;;;;;;;;5135491;27;2048;-40
2023/03/30 02:51:23;;;;;;;;;;;;;;;;;;5117070;27;2106;-41
2023/03/30 02:54:26;;;;;;;;;;;;;;;;;;5117123;27;1820;-40
2023/03/30 02:57:19;;;;;;;;;;;;;;;;;;5121675;27;1359;-40
2023/03/30 02:59:47;;;;;;;;;;;;;;;;;;5137387;27;1800;-46
2023/03/30 03:02:23;;;;;;;;;;;;;;;;;;5137366;27;2032;-40
2023/03/30 03:05:03;;;;;;;;;;;;;;;;;;5137585;27;1510;-40
2023/03/30 03:07:47;;;;;;;;;;;;;;;;;;5137446;27;2014;-42
2023/03/30 03:10:14;;;;;;;;;;;;;;;;;;5155952;27;1976;-40
2023/03/30 03:12:43;;;;;;;;;;;;;;;;;;5137356;27;2048;-40
2023/03/30 03:15:11;;;;;;;;;;;;;;;;;;5137374;27;2022;-42
2023/03/30 03:17:50;;;;;;;;;;;;;;;;;;5137236;27;2008;-41
2023/03/30 03:20:17;;;;;;;;;;;;;;;;;;5137071;27;1960;-41
2023/03/30 03:22:44;;;;;;;;;;;;;;;;;;5155954;27;1907;-43
2023/03/30 03:25:12;;;;;;;;;;;;;;;;;;5154494;27;2089;-40
2023/03/30 03:28:01;;;;;;;;;;;;;;;;;;5133376;27;1815;-42
2023/03/30 03:30:34;;;;;;;;;;;;;;;;;;5134943;27;2003;-41
2023/03/30 03:33:08;;;;;;;;;;;;;;;;;;5133375;27;1979;-40
2023/03/30 03:35:38;;;;;;;;;;;;;;;;;;5133213;27;1984;-40
2023/03/30 03:38:07;;;;;;;;;;;;;;;;;;5134753;27;2154;-42
2023/03/30 03:40:35;;;;;;;;;;;;;;;;;;5132498;27;1932;-40
2023/03/30 03:43:02;;;;;;;;;;;;;;;;;;5134626;27;2002;-40
2023/03/30 03:45:30;;;;;;;;;;;;;;;;;;5134588;27;2134;-40
2023/03/30 03:47:59;;;;;;;;;;;;;;;;;;5132782;27;2093;-40
2023/03/30 03:50:41;;;;;;;;;;;;;;;;;;5132920;27;2120;-41
2023/03/30 03:53:09;;;;;;;;;;;;;;;;;;5133279;27;2354;-40
2023/03/30 03:55:36;;;;;;;;;;;;;;;;;;5132981;27;2042;-40
2023/03/30 03:58:04;;;;;;;;;;;;;;;;;;5115746;27;1983;-41
2023/03/30 04:00:35;;;;;;;;;;;;;;;;;;5134196;27;2166;-41
2023/03/30 04:03:03;;;;;;;;;;;;;;;;;;5134065;27;2006;-46
2023/03/30 04:05:31;;;;;;;;;;;;;;;;;;5134353;27;1800;-41
2023/03/30 04:07:58;;;;;;;;;;;;;;;;;;5115807;27;2016;-41
2023/03/30 04:10:25;;;;;;;;;;;;;;;;;;5115704;27;1999;-41
2023/03/30 04:13:11;;;;;;;;;;;;;;;;;;5133868;27;2099;-46
2023/03/30 04:15:38;;;;;;;;;;;;;;;;;;5134111;27;2070;-41
2023/03/30 04:18:34;;;;;;;;;;;;;;;;;;5130342;27;1844;-41
2023/03/30 04:21:24;;;;;;;;;;;;;;;;;;5115126;27;2202;-41
2023/03/30 04:24:13;;;;;;;;;;;;;;;;;;5115158;27;2034;-41
2023/03/30 04:27:19;;;;;;;;;;;;;;;;;;5090642;28;2037;-41
2023/03/30 04:30:16;;;;;;;;;;;;;;;;;;5037254;28;2071;-41
2023/03/30 04:33:03;;;;;;;;;;;;;;;;;;5125351;27;2124;-41
2023/03/30 04:35:50;;;;;;;;;;;;;;;;;;5119049;27;1885;-41
2023/03/30 04:38:56;;;;;;;;;;;;;;;;;;5131327;27;2238;-41
2023/03/30 04:41:44;;;;;;;;;;;;;;;;;;5133380;27;1767;-41
2023/03/30 04:44:37;;;;;;;;;;;;;;;;;;5130262;27;2188;-40
2023/03/30 04:47:40;;;;;;;;;;;;;;;;;;5093255;28;2189;-41
2023/03/30 04:50:22;;;;;;;;;;;;;;;;;;5149330;27;2089;-41
2023/03/30 04:53:08;;;;;;;;;;;;;;;;;;5153959;27;1987;-40
2023/03/30 04:56:02;;;;;;;;;;;;;;;;;;5114290;27;2038;-41
2023/03/30 04:58:38;;;;;;;;;;;;;;;;;;5114369;27;1959;-41
2023/03/30 05:01:21;;;;;;;;;;;;;;;;;;5113871;27;1884;-40
2023/03/30 05:03:54;;;;;;;;;;;;;;;;;;5132925;27;1992;-47
2023/03/30 05:06:44;;;;;;;;;;;;;;;;;;5093901;27;1470;-40
2023/03/30 05:09:25;;;;;;;;;;;;;;;;;;5132701;27;1910;-40
2023/03/30 05:12:14;;;;;;;;;;;;;;;;;;5132213;27;1910;-42
2023/03/30 05:15:00;;;;;;;;;;;;;;;;;;5132711;27;2389;-43
2023/03/30 05:17:46;;;;;;;;;;;;;;;;;;5132750;27;1909;-41
2023/03/30 05:20:23;;;;;;;;;;;;;;;;;;5114375;27;1989;-45
2023/03/30 05:23:12;;;;;;;;;;;;;;;;;;5132324;27;1823;-39
2023/03/30 05:25:54;;;;;;;;;;;;;;;;;;5132690;27;2016;-40
2023/03/30 05:28:41;;;;;;;;;;;;;;;;;;5142626;27;1945;-41
2023/03/30 05:31:19;;;;;;;;;;;;;;;;;;5134699;27;1902;-41
2023/03/30 05:34:12;;;;;;;;;;;;;;;;;;5153037;27;1912;-41
2023/03/30 05:36:39;;;;;;;;;;;;;;;;;;5153331;27;1913;-41
2023/03/30 05:39:15;;;;;;;;;;;;;;;;;;5134513;27;2008;-41
2023/03/30 05:42:10;;;;;;;;;;;;;;;;;;5149019;27;2018;-40
2023/03/30 05:45:04;;;;;;;;;;;;;;;;;;5128703;27;2184;-41
2023/03/30 05:48:01;;;;;;;;;;;;;;;;;;5135880;27;2034;-40
2023/03/30 05:50:58;;;;;;;;;;;;;;;;;;5120883;27;2036;-41
2023/03/30 05:53:39;;;;;;;;;;;;;;;;;;5119891;27;1971;-41
2023/03/30 05:56:26;;;;;;;;;;;;;;;;;;5142487;27;2084;-40
2023/03/30 05:59:16;;;;;;;;;;;;;;;;;;5120554;27;1955;-40
2023/03/30 06:01:54;;;;;;;;;;;;;;;;;;5131885;27;1978;-41
2023/03/30 06:04:26;;;;;;;;;;;;;;;;;;5130807;27;2067;-41
2023/03/30 06:06:53;;;;;;;;;;;;;;;;;;5113893;27;1955;-43
2023/03/30 06:09:22;;;;;;;;;;;;;;;;;;5130617;28;2215;-41
2023/03/30 06:11:50;;;;;;;;;;;;;;;;;;5130434;28;2116;-41
2023/03/30 06:14:21;;;;;;;;;;;;;;;;;;5113661;28;1991;-41
2023/03/30 06:17:20;;;;;;;;;;;;;;;;;;5113627;28;2071;-41
2023/03/30 06:19:49;;;;;;;;;;;;;;;;;;5113477;28;1990;-42
2023/03/30 06:22:16;;;;;;;;;;;;;;;;;;5131847;28;2049;-43
2023/03/30 06:24:55;;;;;;;;;;;;;;;;;;5113571;28;2245;-41
2023/03/30 06:27:23;;;;;;;;;;;;;;;;;;5131736;28;2262;-41
2023/03/30 06:29:51;;;;;;;;;;;;;;;;;;5131743;28;1994;-42
2023/03/30 06:32:19;;;;;;;;;;;;;;;;;;5131736;28;1942;-42
2023/03/30 06:35:05;;;;;;;;;;;;;;;;;;5131684;28;1817;-44
2023/03/30 06:37:35;;;;;;;;;;;;;;;;;;5113375;28;1927;-47
2023/03/30 06:40:12;;;;;;;;;;;;;;;;;;5130363;28;1636;-42
2023/03/30 06:42:45;;;;;;;;;;;;;;;;;;5113065;28;2002;-45
2023/03/30 06:45:20;;;;;;;;;;;;;;;;;;5112982;28;1906;-42
2023/03/30 06:47:47;;;;;;;;;;;;;;;;;;5113296;28;2144;-40
2023/03/30 06:50:15;;;;;;;;;;;;;;;;;;5130106;28;1913;-41
2023/03/30 06:53:01;;;;;;;;;;;;;;;;;;5131819;28;1862;-41
2023/03/30 06:55:35;;;;;;;;;;;;;;;;;;5134797;27;1983;-43
2023/03/30 06:58:03;;;;;;;;;;;;;;;;;;5133739;27;2045;-42
2023/03/30 07:00:30;;;;;;;;;;;;;;;;;;5133698;27;1794;-41
2023/03/30 07:03:20;;;;;;;;;;;;;;;;;;5152516;27;1956;-43
2023/03/30 07:05:57;;;;;;;;;;;;;;;;;;5133461;27;2344;-42
2023/03/30 07:08:33;;;;;;;;;;;;;;;;;;5133494;27;2362;-41
2023/03/30 07:11:01;;;;;;;;;;;;;;;;;;5133550;27;2070;-43
2023/03/30 07:13:31;;;;;;;;;;;;;;;;;;5134696;27;1872;-41
2023/03/30 07:15:58;;;;;;;;;;;;;;;;;;5137460;27;2073;-42
2023/03/30 07:18:26;;;;;;;;;;;;;;;;;;5155923;27;1847;-43
2023/03/30 07:20:55;;;;;;;;;;;;;;;;;;5137211;27;2026;-47
2023/03/30 07:23:27;;;;;;;;;;;;;;;;;;5137233;27;1934;-42
2023/03/30 07:25:54;;;;;;;;;;;;;;;;;;5137444;27;2079;-41
2023/03/30 07:28:27;;;;;;;;;;;;;;;;;;5137237;27;2000;-44
2023/03/30 07:31:04;;;;;;;;;;;;;;;;;;5136845;27;2011;-42
2023/03/30 07:33:33;;;;;;;;;;;;;;;;;;5136912;27;1959;-45
2023/03/30 07:36:02;;;;;;;;;;;;;;;;;;5137054;27;2212;-41
2023/03/30 07:38:31;;;;;;;;;;;;;;;;;;5136914;27;2133;-46
2023/03/30 07:40:59;;;;;;;;;;;;;;;;;;5136913;27;1944;-47
2023/03/30 07:43:28;;;;;;;;;;;;;;;;;;5136891;27;1817;-42
2023/03/30 07:45:56;;;;;;;;;;;;;;;;;;5136476;27;2239;-42
2023/03/30 07:48:31;;;;;;;;;;;;;;;;;;5136949;27;1930;-43
2023/03/30 07:51:03;;;;;;;;;;;;;;;;;;5155220;27;1966;-42
2023/03/30 07:53:33;;;;;;;;;;;;;;;;;;5136791;27;1664;-43
2023/03/30 07:56:05;;;;;;;;;;;;;;;;;;5132525;27;2070;-50
2023/03/30 07:58:40;;;;;;;;;;;;;;;;;;5116047;27;2178;-42
2023/03/30 08:01:09;;;;;;;;;;;;;;;;;;5115918;27;2009;-49
2023/03/30 08:04:07;;;;;;;;;;;;;;;;;;5115531;27;2356;-44
2023/03/30 08:06:35;;;;;;;;;;;;;;;;;;5119022;27;1967;-45
2023/03/30 08:09:03;;;;;;;;;;;;;;;;;;5134385;27;1852;-41
2023/03/30 08:11:31;;;;;;;;;;;;;;;;;;5115916;27;1982;-41
2023/03/30 08:14:04;;;;;;;;;;;;;;;;;;5137610;27;1862;-45
2023/03/30 08:16:31;;;;;;;;;;;;;;;;;;5154649;27;1928;-41
2023/03/30 08:18:59;;;;;;;;;;;;;;;;;;5154260;27;1938;-42
2023/03/30 08:21:26;;;;;;;;;;;;;;;;;;5154563;27;2022;-41
2023/03/30 08:23:58;;;;;;;;;;;;;;;;;;5154455;27;2143;-42
2023/03/30 08:26:27;;;;;;;;;;;;;;;;;;5153811;27;1935;-42
2023/03/30 08:28:54;;;;;;;;;;;;;;;;;;5154358;27;2063;-46
2023/03/30 08:31:21;;;;;;;;;;;;;;;;;;5154240;27;2011;-45
2023/03/30 08:33:48;;;;;;;;;;;;;;;;;;5154248;27;2262;-41
2023/03/30 08:36:15;;;;;;;;;;;;;;;;;;5154013;27;1860;-41
2023/03/30 08:38:44;;;;;;;;;;;;;;;;;;5154333;27;1952;-41
2023/03/30 08:41:26;;;;;;;;;;;;;;;;;;5153989;27;2020;-42
2023/03/30 08:43:57;;;;;;;;;;;;;;;;;;5154020;27;1840;-41
2023/03/30 08:46:24;;;;;;;;;;;;;;;;;;5153862;27;1809;-41
2023/03/30 08:48:52;;;;;;;;;;;;;;;;;;5154159;27;1951;-41
2023/03/30 08:51:24;;;;;;;;;;;;;;;;;;5153411;27;1987;-41
2023/03/30 08:53:54;;;;;;;;;;;;;;;;;;5153757;27;2261;-42
2023/03/30 08:56:30;;;;;;;;;;;;;;;;;;5143445;27;1961;-40
2023/03/30 08:59:16;;;;;;;;;;;;;;;;;;5133018;27;1897;-41
2023/03/30 09:01:57;;;;;;;;;;;;;;;;;;5132852;27;1802;-40
2023/03/30 09:04:24;;;;;;;;;;;;;;;;;;5132779;27;1789;-47
2023/03/30 09:07:03;;;;;;;;;;;;;;;;;;5133018;27;2019;-41
2023/03/30 09:09:31;;;;;;;;;;;;;;;;;;5132625;27;1979;-42
2023/03/30 09:12:03;;;;;;;;;;;;;;;;;;5133048;27;2083;-41
2023/03/30 09:14:33;;;;;;;;;;;;;;;;;;5132553;27;1897;-42
2023/03/30 09:17:06;;;;;;;;;;;;;;;;;;5133018;27;2393;-41
2023/03/30 09:19:37;;;;;;;;;;;;;;;;;;5132905;27;1910;-42
2023/03/30 09:22:06;;;;;;;;;;;;;;;;;;5132784;27;2181;-41
2023/03/30 09:24:33;;;;;;;;;;;;;;;;;;5132367;27;2164;-40
2023/03/30 09:27:07;;;;;;;;;;;;;;;;;;5132618;27;1851;-41
2023/03/30 09:29:46;;;;;;;;;;;;;;;;;;5132653;27;2073;-41
2023/03/30 09:32:22;;;;;;;;;;;;;;;;;;5132166;27;1915;-41
2023/03/30 09:34:58;;;;;;;;;;;;;;;;;;5132622;27;1978;-41
2023/03/30 09:37:26;;;;;;;;;;;;;;;;;;5131463;27;2130;-41
2023/03/30 09:39:57;;;;;;;;;;;;;;;;;;5132177;27;1949;-41
2023/03/30 09:42:27;;;;;;;;;;;;;;;;;;5132297;27;2040;-41
2023/03/30 09:45:14;;;;;;;;;;;;;;;;;;5132372;27;1959;-41
2023/03/30 09:47:43;;;;;;;;;;;;;;;;;;5146220;27;1963;-47
2023/03/30 09:50:15;;;;;;;;;;;;;;;;;;5149920;27;1961;-41
2023/03/30 09:52:53;;;;;;;;;;;;;;;;;;5131814;27;1941;-45
2023/03/30 09:55:20;;;;;;;;;;;;;;;;;;5133271;27;2183;-50
2023/03/30 09:57:49;;;;;;;;;;;;;;;;;;5152461;27;1932;-41
2023/03/30 10:00:31;;;;;;;;;;;;;;;;;;5152742;27;1557;-42
2023/03/30 10:03:00;;;;;;;;;;;;;;;;;;5152562;27;2232;-41
2023/03/30 10:05:27;;;;;;;;;;;;;;;;;;5152707;27;1904;-49
2023/03/30 10:07:56;;;;;;;;;;;;;;;;;;5152336;27;2065;-42
2023/03/30 10:10:39;;;;;;;;;;;;;;;;;;5152600;27;1988;-40
2023/03/30 10:13:18;;;;;;;;;;;;;;;;;;5152552;27;2350;-45
2023/03/30 10:15:48;;;;;;;;;;;;;;;;;;5131847;28;1787;-46
2023/03/30 10:18:33;;;;;;;;;;;;;;;;;;5131993;28;2197;-43
2023/03/30 10:21:01;;;;;;;;;;;;;;;;;;5131944;28;1901;-48
2023/03/30 10:23:32;;;;;;;;;;;;;;;;;;5131762;28;2047;-42
2023/03/30 10:26:02;;;;;;;;;;;;;;;;;;5131714;28;1924;-44
2023/03/30 10:28:32;;;;;;;;;;;;;;;;;;5131759;28;2113;-42
2023/03/30 10:31:04;;;;;;;;;;;;;;;;;;5131863;28;1980;-41
2023/03/30 10:33:36;;;;;;;;;;;;;;;;;;5131660;28;1840;-41
2023/03/30 10:36:06;;;;;;;;;;;;;;;;;;5113327;28;1995;-41
2023/03/30 10:38:34;;;;;;;;;;;;;;;;;;5131558;28;1952;-48
2023/03/30 10:41:09;;;;;;;;;;;;;;;;;;5131844;28;1717;-43
2023/03/30 10:43:37;;;;;;;;;;;;;;;;;;5131787;28;1917;-48
2023/03/30 10:46:12;;;;;;;;;;;;;;;;;;5130366;28;2078;-48
2023/03/30 10:48:52;;;;;;;;;;;;;;;;;;5132821;27;2064;-49
2023/03/30 10:51:19;;;;;;;;;;;;;;;;;;5134268;27;1961;-46
2023/03/30 10:53:46;;;;;;;;;;;;;;;;;;5134997;27;2146;-44
2023/03/30 10:56:32;;;;;;;;;;;;;;;;;;5135126;27;1916;-48
2023/03/30 10:58:59;;;;;;;;;;;;;;;;;;5135296;27;2007;-46
2023/03/30 11:01:45;;;;;;;;;;;;;;;;;;5135263;27;1851;-49
2023/03/30 11:04:22;;;;;;;;;;;;;;;;;;5135380;27;1955;-42
2023/03/30 11:06:52;;;;;;;;;;;;;;;;;;5134246;27;1886;-49
2023/03/30 11:09:23;;;;;;;;;;;;;;;;;;5135098;27;2096;-52
2023/03/30 11:11:55;;;;;;;;;;;;;;;;;;5135034;27;1906;-49
2023/03/30 11:14:40;;;;;;;;;;;;;;;;;;5135200;27;2007;-45
2023/03/30 11:17:11;;;;;;;;;;;;;;;;;;5150193;27;1966;-49
2023/03/30 11:19:42;;;;;;;;;;;;;;;;;;5155976;27;1947;-48
2023/03/30 11:22:20;;;;;;;;;;;;;;;;;;5155877;27;2043;-41
2023/03/30 11:24:48;;;;;;;;;;;;;;;;;;5155764;27;1915;-41
2023/03/30 11:27:35;;;;;;;;;;;;;;;;;;5155641;27;1528;-42
2023/03/30 11:30:03;;;;;;;;;;;;;;;;;;5155514;27;1944;-41
2023/03/30 11:32:49;;;;;;;;;;;;;;;;;;5155569;27;2003;-42
2023/03/30 11:35:26;;;;;;;;;;;;;;;;;;5155321;27;1832;-46
2023/03/30 11:37:58;;;;;;;;;;;;;;;;;;5155286;27;2075;-42
2023/03/30 11:40:34;;;;;;;;;;;;;;;;;;5136928;27;1969;-43
2023/03/30 11:43:01;;;;;;;;;;;;;;;;;;5155037;27;2225;-42
2023/03/30 11:45:28;;;;;;;;;;;;;;;;;;5155120;27;1813;-41
2023/03/30 11:48:03;;;;;;;;;;;;;;;;;;5155051;27;1986;-47
2023/03/30 11:50:33;;;;;;;;;;;;;;;;;;5155227;27;1960;-41
2023/03/30 11:53:10;;;;;;;;;;;;;;;;;;5154863;27;1948;-47
2023/03/30 11:55:55;;;;;;;;;;;;;;;;;;5151249;27;1690;-42
2023/03/30 11:58:33;;;;;;;;;;;;;;;;;;5134467;27;1844;-44
2023/03/30 12:01:07;;;;;;;;;;;;;;;;;;5133593;27;1768;-42
2023/03/30 12:03:38;;;;;;;;;;;;;;;;;;5134183;27;2039;-42
2023/03/30 12:06:05;;;;;;;;;;;;;;;;;;5133991;27;1819;-42
2023/03/30 12:08:32;;;;;;;;;;;;;;;;;;5134243;27;1987;-42
2023/03/30 12:11:03;;;;;;;;;;;;;;;;;;5134258;27;2302;-47
2023/03/30 12:13:31;;;;;;;;;;;;;;;;;;5134175;27;1648;-47
2023/03/30 12:16:15;;;;;;;;;;;;;;;;;;5134300;27;2029;-40
2023/03/30 12:19:01;;;;;;;;;;;;;;;;;;5133566;27;1954;-44
2023/03/30 12:21:35;;;;;;;;;;;;;;;;;;5134033;27;2041;-53
2023/03/30 12:24:11;;;;;;;;;;;;;;;;;;5133554;27;2146;-41
2023/03/30 12:26:41;;;;;;;;;;;;;;;;;;5134009;27;1935;-41
2023/03/30 12:29:18;;;;;;;;;;;;;;;;;;5133367;27;1919;-43
2023/03/30 12:31:54;;;;;;;;;;;;;;;;;;5133679;27;1910;-49
2023/03/30 12:34:23;;;;;;;;;;;;;;;;;;5133579;27;2006;-40
2023/03/30 12:36:59;;;;;;;;;;;;;;;;;;5133476;27;2082;-40
2023/03/30 12:39:30;;;;;;;;;;;;;;;;;;5133358;27;1933;-39
2023/03/30 12:42:05;;;;;;;;;;;;;;;;;;5133294;27;1860;-41
2023/03/30 12:44:51;;;;;;;;;;;;;;;;;;5133238;27;2162;-41
2023/03/30 12:47:29;;;;;;;;;;;;;;;;;;5114705;27;2242;-41
2023/03/30 12:50:17;;;;;;;;;;;;;;;;;;5133206;27;1885;-43
2023/03/30 12:53:00;;;;;;;;;;;;;;;;;;5111047;27;1909;-43
2023/03/30 12:55:48;;;;;;;;;;;;;;;;;;5132857;27;1911;-44
2023/03/30 12:58:18;;;;;;;;;;;;;;;;;;5133032;27;2057;-41
2023/03/30 13:00:55;;;;;;;;;;;;;;;;;;5133123;27;1944;-45
2023/03/30 13:03:25;;;;;;;;;;;;;;;;;;5133118;27;2024;-41
2023/03/30 13:05:53;;;;;;;;;;;;;;;;;;5132659;27;2093;-41
2023/03/30 13:08:40;;;;;;;;;;;;;;;;;;5132816;27;1997;-47
2023/03/30 13:11:10;;;;;;;;;;;;;;;;;;5132762;27;1974;-40
2023/03/30 13:13:43;;;;;;;;;;;;;;;;;;5132644;27;1933;-40
2023/03/30 13:16:10;;;;;;;;;;;;;;;;;;5132646;27;2059;-40
2023/03/30 13:18:51;;;;;;;;;;;;;;;;;;5132952;27;2013;-40
2023/03/30 13:21:23;;;;;;;;;;;;;;;;;;5132530;27;2147;-41
2023/03/30 13:24:02;;;;;;;;;;;;;;;;;;5132489;27;1870;-40
2023/03/30 13:26:39;;;;;;;;;;;;;;;;;;5132380;27;2026;-41
2023/03/30 13:29:09;;;;;;;;;;;;;;;;;;5132619;27;1859;-40
2023/03/30 13:31:42;;;;;;;;;;;;;;;;;;5132015;27;1999;-40
2023/03/30 13:34:15;;;;;;;;;;;;;;;;;;5132064;27;2032;-42
2023/03/30 13:37:02;;;;;;;;;;;;;;;;;;5132321;27;2184;-46
2023/03/30 13:39:33;;;;;;;;;;;;;;;;;;5131999;27;2036;-40
2023/03/30 13:42:10;;;;;;;;;;;;;;;;;;5131967;27;2121;-45
2023/03/30 13:44:38;;;;;;;;;;;;;;;;;;5132489;27;1939;-40
2023/03/30 13:47:26;;;;;;;;;;;;;;;;;;5131906;27;2005;-41
2023/03/30 13:49:53;;;;;;;;;;;;;;;;;;5131850;27;1942;-43
2023/03/30 13:52:26;;;;;;;;;;;;;;;;;;5131937;27;2004;-40
2023/03/30 13:54:54;;;;;;;;;;;;;;;;;;5131979;27;1627;-41
2023/03/30 13:57:32;;;;;;;;;;;;;;;;;;5150504;27;2053;-40
2023/03/30 14:00:08;;;;;;;;;;;;;;;;;;5152794;27;1952;-43
2023/03/30 14:02:39;;;;;;;;;;;;;;;;;;5152493;27;1981;-41
2023/03/30 14:05:14;;;;;;;;;;;;;;;;;;5152654;27;1911;-41
2023/03/30 14:07:41;;;;;;;;;;;;;;;;;;5152827;27;1979;-40
2023/03/30 14:10:16;;;;;;;;;;;;;;;;;;5152883;27;1876;-41
2023/03/30 14:12:46;;;;;;;;;;;;;;;;;;5152464;27;1938;-41
2023/03/30 14:15:18;;;;;;;;;;;;;;;;;;5152382;27;2129;-39
2023/03/30 14:17:50;;;;;;;;;;;;;;;;;;5152402;27;2141;-43
2023/03/30 14:20:36;;;;;;;;;;;;;;;;;;5133901;27;1967;-42
2023/03/30 14:23:04;;;;;;;;;;;;;;;;;;5152894;27;1888;-41
2023/03/30 14:25:34;;;;;;;;;;;;;;;;;;5156672;27;1834;-41
2023/03/30 14:28:06;;;;;;;;;;;;;;;;;;5156588;27;2174;-44
2023/03/30 14:30:34;;;;;;;;;;;;;;;;;;5156644;27;1884;-40
2023/03/30 14:33:08;;;;;;;;;;;;;;;;;;5156611;27;1911;-48
2023/03/30 14:35:49;;;;;;;;;;;;;;;;;;5156625;27;1945;-42
2023/03/30 14:38:20;;;;;;;;;;;;;;;;;;5156124;27;2049;-40
2023/03/30 14:40:48;;;;;;;;;;;;;;;;;;5156265;27;1926;-41
2023/03/30 14:43:18;;;;;;;;;;;;;;;;;;5156408;27;2057;-41
2023/03/30 14:45:46;;;;;;;;;;;;;;;;;;5156157;27;1976;-42
2023/03/30 14:48:20;;;;;;;;;;;;;;;;;;5156578;27;2230;-41
2023/03/30 14:50:49;;;;;;;;;;;;;;;;;;5155357;27;1982;-41
2023/03/30 14:53:19;;;;;;;;;;;;;;;;;;5155970;27;2066;-40
2023/03/30 14:55:47;;;;;;;;;;;;;;;;;;5150972;27;1863;-41
2023/03/30 14:58:15;;;;;;;;;;;;;;;;;;5135459;27;1927;-40
2023/03/30 15:00:42;;;;;;;;;;;;;;;;;;5135572;27;1896;-40
2023/03/30 15:03:10;;;;;;;;;;;;;;;;;;5135338;27;1976;-40
2023/03/30 15:05:48;;;;;;;;;;;;;;;;;;5135376;27;1990;-41
2023/03/30 15:08:19;;;;;;;;;;;;;;;;;;5135401;27;1724;-40
2023/03/30 15:10:55;;;;;;;;;;;;;;;;;;5135161;27;2139;-41
2023/03/30 15:13:30;;;;;;;;;;;;;;;;;;5135227;27;2034;-44
2023/03/30 15:15:58;;;;;;;;;;;;;;;;;;5134911;27;1903;-41
2023/03/30 15:18:26;;;;;;;;;;;;;;;;;;5135057;27;1903;-47
2023/03/30 15:20:54;;;;;;;;;;;;;;;;;;5135026;27;2118;-41
2023/03/30 15:23:22;;;;;;;;;;;;;;;;;;5135151;27;2194;-41
2023/03/30 15:25:49;;;;;;;;;;;;;;;;;;5135012;27;1807;-41
2023/03/30 15:28:18;;;;;;;;;;;;;;;;;;5135034;27;1940;-43
2023/03/30 15:30:49;;;;;;;;;;;;;;;;;;5135191;27;1823;-41
2023/03/30 15:33:37;;;;;;;;;;;;;;;;;;5134850;27;2074;-41
2023/03/30 15:36:06;;;;;;;;;;;;;;;;;;5126265;27;2158;-45
2023/03/30 15:38:35;;;;;;;;;;;;;;;;;;5134542;27;2136;-41
2023/03/30 15:41:07;;;;;;;;;;;;;;;;;;5134577;27;1917;-44
2023/03/30 15:43:35;;;;;;;;;;;;;;;;;;5134770;27;2165;-41
2023/03/30 15:46:07;;;;;;;;;;;;;;;;;;5134413;27;2050;-41
2023/03/30 15:48:37;;;;;;;;;;;;;;;;;;5134464;27;1979;-41
2023/03/30 15:51:10;;;;;;;;;;;;;;;;;;5134146;27;1920;-40
2023/03/30 15:53:52;;;;;;;;;;;;;;;;;;5134312;27;2037;-40
2023/03/30 15:56:40;;;;;;;;;;;;;;;;;;5134344;27;2017;-44
2023/03/30 15:59:12;;;;;;;;;;;;;;;;;;5134489;27;2082;-42
2023/03/30 16:01:47;;;;;;;;;;;;;;;;;;5134493;27;1920;-41
2023/03/30 16:04:16;;;;;;;;;;;;;;;;;;5133943;27;2040;-41
2023/03/30 16:06:43;;;;;;;;;;;;;;;;;;5134550;27;2081;-41
2023/03/30 16:09:13;;;;;;;;;;;;;;;;;;5134526;27;1974;-44
2023/03/30 16:11:40;;;;;;;;;;;;;;;;;;5134477;27;2042;-41
2023/03/30 16:14:11;;;;;;;;;;;;;;;;;;5133652;27;1976;-45
2023/03/30 16:16:40;;;;;;;;;;;;;;;;;;5134149;27;1999;-42
2023/03/30 16:19:09;;;;;;;;;;;;;;;;;;5133793;27;1875;-43
2023/03/30 16:21:37;;;;;;;;;;;;;;;;;;5133235;27;2060;-43
2023/03/30 16:24:04;;;;;;;;;;;;;;;;;;5133935;27;1382;-41
2023/03/30 16:26:32;;;;;;;;;;;;;;;;;;5133659;27;2249;-41
2023/03/30 16:28:59;;;;;;;;;;;;;;;;;;5133940;27;1881;-42
2023/03/30 16:31:27;;;;;;;;;;;;;;;;;;5133655;27;1970;-45
2023/03/30 16:33:54;;;;;;;;;;;;;;;;;;5133654;27;2063;-41
2023/03/30 16:36:23;;;;;;;;;;;;;;;;;;5115294;27;2314;-42
2023/03/30 16:38:50;;;;;;;;;;;;;;;;;;5133870;27;1944;-41
2023/03/30 16:41:19;;;;;;;;;;;;;;;;;;5133463;27;2098;-41
2023/03/30 16:43:46;;;;;;;;;;;;;;;;;;5133596;27;2036;-41
2023/03/30 16:46:17;;;;;;;;;;;;;;;;;;5132909;27;2117;-41
2023/03/30 16:48:45;;;;;;;;;;;;;;;;;;5133511;27;2107;-42
2023/03/30 16:51:13;;;;;;;;;;;;;;;;;;5133551;27;1996;-43
2023/03/30 16:53:41;;;;;;;;;;;;;;;;;;5133237;27;1996;-42
2023/03/30 16:56:17;;;;;;;;;;;;;;;;;;5133101;27;2145;-42
2023/03/30 16:58:45;;;;;;;;;;;;;;;;;;5131851;27;2102;-40
2023/03/30 17:01:14;;;;;;;;;;;;;;;;;;5132805;27;1877;-42
2023/03/30 17:03:41;;;;;;;;;;;;;;;;;;5133382;27;1759;-41
2023/03/30 17:06:09;;;;;;;;;;;;;;;;;;5132973;27;1771;-41
2023/03/30 17:08:36;;;;;;;;;;;;;;;;;;5133030;27;1961;-41
2023/03/30 17:11:06;;;;;;;;;;;;;;;;;;5133095;27;2127;-41
2023/03/30 17:13:33;;;;;;;;;;;;;;;;;;5132956;27;2012;-41
2023/03/30 17:16:01;;;;;;;;;;;;;;;;;;5133005;27;1903;-41
2023/03/30 17:18:29;;;;;;;;;;;;;;;;;;5132710;27;1974;-42
2023/03/30 17:20:57;;;;;;;;;;;;;;;;;;5114364;27;1908;-40
2023/03/30 17:23:25;;;;;;;;;;;;;;;;;;5132682;27;2030;-40
2023/03/30 17:25:53;;;;;;;;;;;;;;;;;;5132648;27;2081;-41
2023/03/30 17:28:22;;;;;;;;;;;;;;;;;;5132846;27;1858;-41
2023/03/30 17:30:52;;;;;;;;;;;;;;;;;;5132753;27;1973;-45
2023/03/30 17:33:20;;;;;;;;;;;;;;;;;;5132352;27;2034;-40
2023/03/30 17:35:48;;;;;;;;;;;;;;;;;;5132654;27;1952;-41
2023/03/30 17:38:16;;;;;;;;;;;;;;;;;;5132302;27;2146;-55
2023/03/30 17:40:44;;;;;;;;;;;;;;;;;;5132936;27;1999;-40
2023/03/30 17:43:13;;;;;;;;;;;;;;;;;;5132688;27;1999;-40
2023/03/30 17:45:40;;;;;;;;;;;;;;;;;;5132249;27;1847;-43
2023/03/30 17:48:12;;;;;;;;;;;;;;;;;;5132382;27;1946;-41